sensor_id;sensor_type;location;lat;lon;timestamp;P1;durP1;ratioP1;P2;durP2;ratioP2
5959;SDS011;3006;50.956;7.002;2023-03-19T18:52:57;15.63;;;8.03;;
5959;SDS011;3006;50.956;7.002;2023-03-19T18:55:26;14.70;;;7.63;;
5959;SDS011;3006;50.956;7.002;2023-03-19T18:57:57;8.37;;;6.67;;
5959;SDS011;3006;50.956;7.002;2023-03-19T19:00:28;12.53;;;6.67;;
5959;SDS011;3006;50.956;7.002;2023-03-19T19:02:57;10.37;;;6.90;;
5959;SDS011;3006;50.956;7.002;2023-03-19T19:05:28;13.97;;;7.50;;
5959;SDS011;3006;50.956;7.002;2023-03-19T19:07:59;11.10;;;6.60;;
5959;SDS011;3006;50.956;7.002;2023-03-19T19:10:29;12.37;;;6.70;;
5959;SDS011;3006;50.956;7.002;2023-03-19T19:13:00;11.67;;;7.10;;
5959;SDS011;3006;50.956;7.002;2023-03-19T19:15:29;7.27;;;6.33;;
5959;SDS011;3006;50.956;7.002;2023-03-19T19:17:59;14.13;;;7.60;;
5959;SDS011;3006;50.956;7.002;2023-03-19T19:20:32;19.97;;;11.80;;
5959;SDS011;3006;50.956;7.002;2023-03-19T19:23:02;13.90;;;9.20;;
5959;SDS011;3006;50.956;7.002;2023-03-19T19:25:30;33.60;;;19.57;;
5959;SDS011;3006;50.956;7.002;2023-03-19T19:27:59;16.70;;;10.57;;
5959;SDS011;3006;50.956;7.002;2023-03-19T19:30:28;15.40;;;9.70;;
5959;SDS011;3006;50.956;7.002;2023-03-19T19:32:57;10.57;;;7.60;;
5959;SDS011;3006;50.956;7.002;2023-03-19T19:35:26;15.30;;;9.37;;
5959;SDS011;3006;50.956;7.002;2023-03-19T19:37:54;11.00;;;7.83;;
5959;SDS011;3006;50.956;7.002;2023-03-19T19:40:25;11.80;;;8.33;;
5959;SDS011;3006;50.956;7.002;2023-03-19T19:42:56;12.47;;;8.40;;
5959;SDS011;3006;50.956;7.002;2023-03-19T19:45:27;10.73;;;7.77;;
5959;SDS011;3006;50.956;7.002;2023-03-19T19:47:58;12.17;;;8.63;;
5959;SDS011;3006;50.956;7.002;2023-03-19T19:50:26;12.73;;;8.27;;
5959;SDS011;3006;50.956;7.002;2023-03-19T19:52:55;14.03;;;8.90;;
5959;SDS011;3006;50.956;7.002;2023-03-19T19:55:25;11.40;;;9.00;;
5959;SDS011;3006;50.956;7.002;2023-03-19T19:57:54;11.50;;;8.30;;
5959;SDS011;3006;50.956;7.002;2023-03-19T20:00:24;12.93;;;9.20;;
5959;SDS011;3006;50.956;7.002;2023-03-19T20:02:54;13.77;;;9.13;;
5959;SDS011;3006;50.956;7.002;2023-03-19T20:05:24;13.80;;;10.33;;
5959;SDS011;3006;50.956;7.002;2023-03-19T20:07:54;10.93;;;9.30;;
5959;SDS011;3006;50.956;7.002;2023-03-19T20:10:25;12.60;;;8.77;;
5959;SDS011;3006;50.956;7.002;2023-03-19T20:12:55;14.17;;;9.60;;
5959;SDS011;3006;50.956;7.002;2023-03-19T20:15:27;12.27;;;8.73;;
5959;SDS011;3006;50.956;7.002;2023-03-19T20:17:58;12.77;;;9.83;;
5959;SDS011;3006;50.956;7.002;2023-03-19T20:20:28;10.53;;;9.03;;
5959;SDS011;3006;50.956;7.002;2023-03-19T20:22:58;14.00;;;8.47;;
5959;SDS011;3006;50.956;7.002;2023-03-19T20:25:29;10.27;;;7.90;;
5959;SDS011;3006;50.956;7.002;2023-03-19T20:27:58;11.37;;;8.13;;
5959;SDS011;3006;50.956;7.002;2023-03-19T20:30:28;11.20;;;7.83;;
5959;SDS011;3006;50.956;7.002;2023-03-19T20:32:58;14.53;;;9.63;;
5959;SDS011;3006;50.956;7.002;2023-03-19T20:35:28;14.33;;;10.53;;
5959;SDS011;3006;50.956;7.002;2023-03-19T20:37:57;12.40;;;8.80;;
5959;SDS011;3006;50.956;7.002;2023-03-19T20:40:27;18.17;;;12.00;;
5959;SDS011;3006;50.956;7.002;2023-03-19T20:42:59;16.13;;;11.60;;
5959;SDS011;3006;50.956;7.002;2023-03-19T20:45:29;15.00;;;11.17;;
5959;SDS011;3006;50.956;7.002;2023-03-19T20:48:02;13.30;;;10.70;;
5959;SDS011;3006;50.956;7.002;2023-03-19T20:50:31;15.50;;;12.70;;
5959;SDS011;3006;50.956;7.002;2023-03-19T20:53:00;28.20;;;17.57;;
5959;SDS011;3006;50.956;7.002;2023-03-19T20:55:31;17.00;;;12.83;;
5959;SDS011;3006;50.956;7.002;2023-03-19T20:58:02;22.13;;;15.40;;
5959;SDS011;3006;50.956;7.002;2023-03-19T21:00:37;21.43;;;15.23;;
5959;SDS011;3006;50.956;7.002;2023-03-19T21:03:08;23.03;;;14.60;;
5959;SDS011;3006;50.956;7.002;2023-03-19T21:05:45;20.47;;;15.40;;
5959;SDS011;3006;50.956;7.002;2023-03-19T21:08:13;25.10;;;15.73;;
5959;SDS011;3006;50.956;7.002;2023-03-19T21:10:46;25.97;;;18.17;;
5959;SDS011;3006;50.956;7.002;2023-03-19T21:13:15;27.30;;;19.33;;
5959;SDS011;3006;50.956;7.002;2023-03-19T21:15:45;27.73;;;19.20;;
5959;SDS011;3006;50.956;7.002;2023-03-19T21:18:15;24.00;;;18.20;;
5959;SDS011;3006;50.956;7.002;2023-03-19T21:20:43;28.73;;;19.60;;
5959;SDS011;3006;50.956;7.002;2023-03-19T21:23:14;31.53;;;20.80;;
5959;SDS011;3006;50.956;7.002;2023-03-19T21:25:47;34.27;;;21.77;;
5959;SDS011;3006;50.956;7.002;2023-03-19T21:28:18;30.37;;;20.33;;
5959;SDS011;3006;50.956;7.002;2023-03-19T21:30:50;31.90;;;22.30;;
5959;SDS011;3006;50.956;7.002;2023-03-19T21:33:22;32.70;;;23.50;;
5959;SDS011;3006;50.956;7.002;2023-03-19T21:35:52;35.10;;;24.40;;
5959;SDS011;3006;50.956;7.002;2023-03-19T21:38:21;36.67;;;23.27;;
5959;SDS011;3006;50.956;7.002;2023-03-19T21:40:53;35.90;;;22.83;;
5959;SDS011;3006;50.956;7.002;2023-03-19T21:43:23;32.07;;;22.40;;
5959;SDS011;3006;50.956;7.002;2023-03-19T21:45:57;31.57;;;22.93;;
5959;SDS011;3006;50.956;7.002;2023-03-19T21:48:39;36.10;;;23.80;;
5959;SDS011;3006;50.956;7.002;2023-03-19T21:51:11;39.87;;;26.27;;
5959;SDS011;3006;50.956;7.002;2023-03-19T21:53:41;34.13;;;24.00;;
5959;SDS011;3006;50.956;7.002;2023-03-19T21:56:16;35.33;;;24.23;;
5959;SDS011;3006;50.956;7.002;2023-03-19T21:58:47;35.60;;;23.93;;
5959;SDS011;3006;50.956;7.002;2023-03-19T22:01:17;36.87;;;23.90;;
5959;SDS011;3006;50.956;7.002;2023-03-19T22:03:46;30.63;;;21.37;;
5959;SDS011;3006;50.956;7.002;2023-03-19T22:06:14;32.40;;;21.20;;
5959;SDS011;3006;50.956;7.002;2023-03-19T22:08:43;32.13;;;22.40;;
5959;SDS011;3006;50.956;7.002;2023-03-19T22:11:15;33.97;;;22.27;;
5959;SDS011;3006;50.956;7.002;2023-03-19T22:13:47;36.60;;;22.40;;
5959;SDS011;3006;50.956;7.002;2023-03-19T22:16:16;35.27;;;22.37;;
5959;SDS011;3006;50.956;7.002;2023-03-19T22:18:46;34.40;;;23.57;;
5959;SDS011;3006;50.956;7.002;2023-03-19T22:21:15;33.60;;;21.57;;
5959;SDS011;3006;50.956;7.002;2023-03-19T22:23:44;27.17;;;19.60;;
5959;SDS011;3006;50.956;7.002;2023-03-19T22:26:25;29.47;;;19.57;;
5959;SDS011;3006;50.956;7.002;2023-03-19T22:28:56;28.53;;;19.13;;
5959;SDS011;3006;50.956;7.002;2023-03-19T22:31:25;31.30;;;20.40;;
5959;SDS011;3006;50.956;7.002;2023-03-19T22:33:54;34.10;;;19.97;;
5959;SDS011;3006;50.956;7.002;2023-03-19T22:36:22;34.50;;;20.57;;
5959;SDS011;3006;50.956;7.002;2023-03-19T22:38:50;28.60;;;18.27;;
5959;SDS011;3006;50.956;7.002;2023-03-19T22:41:20;26.80;;;17.40;;
5959;SDS011;3006;50.956;7.002;2023-03-19T22:43:53;28.90;;;17.90;;
5959;SDS011;3006;50.956;7.002;2023-03-19T22:46:22;27.20;;;17.53;;
5959;SDS011;3006;50.956;7.002;2023-03-19T22:48:51;28.83;;;16.60;;
5959;SDS011;3006;50.956;7.002;2023-03-19T22:51:20;26.30;;;17.00;;
5959;SDS011;3006;50.956;7.002;2023-03-19T22:53:50;29.60;;;17.47;;
5959;SDS011;3006;50.956;7.002;2023-03-19T22:56:18;29.70;;;16.70;;
5959;SDS011;3006;50.956;7.002;2023-03-19T22:58:47;25.97;;;17.10;;
5959;SDS011;3006;50.956;7.002;2023-03-19T23:01:30;26.70;;;17.30;;
5959;SDS011;3006;50.956;7.002;2023-03-19T23:04:19;31.07;;;18.13;;
5959;SDS011;3006;50.956;7.002;2023-03-19T23:06:49;30.27;;;19.10;;
5959;SDS011;3006;50.956;7.002;2023-03-19T23:09:18;27.10;;;18.47;;
5959;SDS011;3006;50.956;7.002;2023-03-19T23:11:48;27.00;;;17.57;;
5959;SDS011;3006;50.956;7.002;2023-03-19T23:14:16;30.80;;;19.13;;
5959;SDS011;3006;50.956;7.002;2023-03-19T23:16:57;26.40;;;16.30;;
5959;SDS011;3006;50.956;7.002;2023-03-19T23:19:28;23.77;;;16.30;;
5959;SDS011;3006;50.956;7.002;2023-03-19T23:21:58;24.33;;;16.50;;
5959;SDS011;3006;50.956;7.002;2023-03-19T23:24:27;24.10;;;16.70;;
5959;SDS011;3006;50.956;7.002;2023-03-19T23:26:57;24.20;;;16.67;;
5959;SDS011;3006;50.956;7.002;2023-03-19T23:29:27;26.00;;;17.07;;
5959;SDS011;3006;50.956;7.002;2023-03-19T23:31:59;23.03;;;15.00;;
5959;SDS011;3006;50.956;7.002;2023-03-19T23:34:28;24.10;;;14.63;;
5959;SDS011;3006;50.956;7.002;2023-03-19T23:37:00;23.23;;;14.97;;
5959;SDS011;3006;50.956;7.002;2023-03-19T23:39:28;23.20;;;16.27;;
5959;SDS011;3006;50.956;7.002;2023-03-19T23:41:57;27.30;;;16.27;;
5959;SDS011;3006;50.956;7.002;2023-03-19T23:44:25;25.27;;;17.07;;
5959;SDS011;3006;50.956;7.002;2023-03-19T23:46:54;26.83;;;16.63;;
5959;SDS011;3006;50.956;7.002;2023-03-19T23:49:27;23.37;;;17.37;;
5959;SDS011;3006;50.956;7.002;2023-03-19T23:51:58;25.43;;;17.30;;
5959;SDS011;3006;50.956;7.002;2023-03-19T23:54:30;22.10;;;15.83;;
5959;SDS011;3006;50.956;7.002;2023-03-19T23:57:00;28.40;;;18.70;;
5959;SDS011;3006;50.956;7.002;2023-03-19T23:59:32;27.80;;;17.80;;
